Flight Track Log - Related Links

Times and Time Zones

All times are in EDT time to prevent confusion due to time zone crossing. See the SWA378 flight status page for this flight to view local times or setup timezone preferences in your user account.


Time Position Orientation Groundspeed Altitude Reporting Facility
EDT Latitude Longitude Course Direction KTS MPH feet Rate Location/Type
Fri 09:21:19 PM 36.9119 -76.1842 37° Northeast 145 167 1,600  Level Washington Center
Fri 09:22:05 PM 36.9517 -76.1664 20° North 230 265 3,800 3,000 Climbing Washington Center
Fri 09:23:05 PM 36.9889 -76.2289 307° West 209 241 6,900 3,407 Climbing Washington Center
Fri 09:24:03 PM 37.0197 -76.3125 295° West 222 255 10,500 2,949 Climbing Washington Center
Fri 09:25:03 PM 37.0608 -76.4169 296° West 289 333 12,700 2,579 Climbing Washington Center
Fri 09:26:04 PM 37.1522 -76.4778 332° Northwest 328 377 15,700 1,636 Climbing Washington Center
Fri 09:27:04 PM 37.2478 -76.5233 339° North 364 419 16,000 150 Climbing Washington Center
Fri 09:28:04 PM 37.3494 -76.5794 336° Northwest 378 435 16,000  Level Washington Center
Fri 09:29:05 PM 37.4492 -76.6331 337° Northwest 389 448 16,000  Level Washington Center
Fri 09:30:03 PM 37.5531 -76.6894 337° Northwest 394 453 16,000  Level Washington Center
Fri 09:31:03 PM 37.6547 -76.7433 337° Northwest 394 453 16,000  Level Washington Center
Fri 09:32:04 PM 37.7564 -76.7975 337° Northwest 394 453 16,000  Level Washington Center
Fri 09:33:05 PM 37.8581 -76.8517 337° Northwest 394 453 16,000  Level Washington Center
Fri 09:34:04 PM 37.9575 -76.9086 336° Northwest 394 453 16,000  Level Washington Center
Fri 09:35:04 PM 38.0714 -76.9686 337° Northwest 399 459 16,000 -248 Level Washington Center
Fri 09:36:05 PM 38.1731 -77.0233 337° Northwest 399 459 15,500 -504 Descending Washington Center
Fri 09:37:03 PM 38.2725 -77.0753 338° Northwest 393 452 15,000 -254 Descending Washington Center
Fri 09:38:03 PM 38.3617 -77.1222 338° Northwest 393 452 15,000 -198 Level Washington Center
Fri 09:39:04 PM 38.4561 -77.0553 29° Northeast 350 403 14,600 -1,000 Descending Washington Center
Fri 09:40:03 PM 38.5264 -76.9453 51° Northeast 346 398 13,000 -1,700 Descending Washington Center
Fri 09:41:04 PM 38.5919 -76.8428 51° Northeast 354 407 11,200 -1,339 Descending Washington Center
Fri 09:42:04 PM 38.6514 -76.7533 50° Northeast 349 402 10,300 -1,140 Descending Washington Center
Fri 09:43:05 PM 38.7042 -76.6717 50° Northeast 318 366 8,900 -1,646 Descending Washington Center
Fri 09:43:57 PM 38.7667 -76.5833 48° Northeast 283 326 7,200 -1,875 Descending Potomac TRACON
Fri 09:44:57 PM 38.8167 -76.5333 38° Northeast 280 322 5,400 -1,100 Descending Potomac TRACON
Fri 09:45:57 PM 38.8833 -76.5500 349° North 270 311 5,000 -200 Descending Potomac TRACON
Fri 09:46:57 PM 38.9667 -76.5833 343° North 270 311 5,000 -400 Level Potomac TRACON
Fri 09:47:57 PM 39.0000 -76.6667 297° West 267 307 4,200 -550 Descending Potomac TRACON
Fri 09:48:57 PM 39.0333 -76.7500 297° West 270 311 3,900 -900 Descending Potomac TRACON
Fri 09:49:57 PM 39.0833 -76.8167 314° West 286 329 2,400 -1,000 Descending Potomac TRACON
Fri 09:50:51 PM 39.1500 -76.8000 11° North 243 280 2,000 -526 Descending Potomac TRACON
Fri 09:51:51 PM 39.1833 -76.7500 49° Northeast 156 180 1,400 -700 Descending Potomac TRACON
Fri 09:52:51 PM 39.1833 -76.7167 90° East 119 137 600 -800 Descending Potomac TRACON
Fri 09:54:00 PM 39.1667 -76.6667 113° Southeast  Level FlightAware Approximate
Fri 10:01:00 PM 39.1754 -76.6683 113° Southeast  Level Estimated
Fri 10:02:00 PM 39.1754 -76.6683 113° Southeast  Level Estimated

Login

Don't have an account? Register now (free) for customized features, flight alerts, and more!